createdAt,value
2018-10-11T00:01:03.757Z,102380.14
2018-10-11T00:03:33.310Z,102383.21
2018-10-11T00:06:02.604Z,102382.77
2018-10-11T00:08:32.052Z,102385.34
2018-10-11T00:11:01.476Z,102383.53
2018-10-11T00:13:30.797Z,102387.06
2018-10-11T00:16:00.271Z,102386.64
2018-10-11T00:18:29.704Z,102384.03
2018-10-11T00:20:58.904Z,102384.92
2018-10-11T00:23:28.430Z,102377.45
2018-10-11T00:25:57.762Z,102380.98
2018-10-11T00:28:27.128Z,102374.38
2018-10-11T00:30:56.697Z,102380.14
2018-10-11T00:33:26.174Z,102386.31
2018-10-11T00:35:55.356Z,102382.77
2018-10-11T00:38:25.188Z,102386.31
2018-10-11T01:38:30.486Z,102341.59
2018-10-11T01:40:59.759Z,102340.69
2018-10-11T01:43:29.192Z,102342.42
2018-10-11T01:45:58.549Z,102340.69
2018-10-11T01:48:27.910Z,102345.45
2018-10-11T01:50:57.546Z,102346.36
2018-10-11T01:53:27.126Z,102339.80
2018-10-11T01:55:56.236Z,102339.38
2018-10-11T01:58:25.886Z,102346.05
2018-10-11T02:00:55.228Z,102345.67
2018-10-11T02:03:24.536Z,102339.92
2018-10-11T02:05:53.957Z,102344.36
2018-10-11T02:08:23.340Z,102337.38
2018-10-11T02:10:52.713Z,102331.63
2018-10-11T02:13:22.486Z,102325.89
2018-10-11T02:15:51.804Z,102300.95
2018-10-11T02:18:35.648Z,102322.67
2018-10-11T02:21:05.065Z,102317.06
2018-10-11T02:23:34.729Z,102314.47
2018-10-11T02:26:04.400Z,102316.08
2018-10-11T02:28:33.636Z,102316.00
2018-10-11T02:31:03.478Z,102315.45
2018-10-11T02:33:32.712Z,102312.82
2018-10-11T02:36:02.335Z,102308.03
2018-10-11T02:38:32.169Z,102307.19
2018-10-11T02:41:02.059Z,102307.19
2018-10-11T02:43:31.361Z,102304.92
2018-10-11T02:46:00.931Z,102302.59
2018-10-11T02:48:30.345Z,102304.74
2018-10-11T02:50:59.757Z,102305.14
2018-10-11T02:53:29.118Z,102305.66
2018-10-11T02:55:58.423Z,102312.82
2018-10-11T02:58:38.701Z,102312.50
2018-10-11T03:01:08.810Z,102305.98
2018-10-11T03:03:39.084Z,102315.20
2018-10-11T03:06:08.732Z,102316.08
2018-10-11T03:08:39.111Z,102312.64
2018-10-11T03:11:08.679Z,102316.16
2018-10-11T03:13:38.438Z,102319.22
2018-10-11T03:16:07.899Z,102320.61
2018-10-11T03:18:37.081Z,102313.55
2018-10-11T03:21:06.889Z,102307.45
2018-10-11T03:23:36.217Z,102306.48
2018-10-11T03:26:06.490Z,102302.95
2018-10-11T03:28:36.850Z,102303.76
2018-10-11T03:31:06.386Z,102302.46
2018-10-11T03:33:35.790Z,102299.34
2018-10-11T03:36:05.354Z,102299.81
2018-10-11T03:38:35.024Z,102294.97
2018-10-11T03:41:05.075Z,102294.97
2018-10-11T03:43:35.038Z,102286.25
2018-10-11T03:46:04.959Z,102273.91
2018-10-11T03:48:36.111Z,102286.33
2018-10-11T03:51:05.608Z,102280.64
2018-10-11T03:53:34.868Z,102284.61
2018-10-11T03:56:04.350Z,102280.25
2018-10-11T03:58:33.982Z,102271.92
2018-10-11T04:01:03.491Z,102274.23
2018-10-11T04:03:32.837Z,102276.05
2018-10-11T04:06:02.454Z,102283.94
2018-10-11T04:08:32.734Z,102275.03
2018-10-11T04:11:01.956Z,102266.71
2018-10-11T04:13:31.220Z,102267.70
2018-10-11T04:16:01.029Z,102256.87
2018-10-11T04:18:30.426Z,102246.08
2018-10-11T04:20:59.956Z,102245.39
2018-10-11T04:23:31.475Z,102239.44
2018-10-11T04:26:01.456Z,102240.47
2018-10-11T04:28:30.832Z,102238.80
2018-10-11T04:31:00.637Z,102245.03
2018-10-11T04:33:30.224Z,102247.66
2018-10-11T04:36:00.127Z,102238.44
2018-10-11T04:38:29.637Z,102112.93
2018-10-11T04:40:59.054Z,102247.25
2018-10-11T04:43:28.579Z,102251.73
2018-10-11T04:45:58.253Z,102239.34
2018-10-11T04:48:27.830Z,102241.19
2018-10-11T04:50:57.193Z,102237.17
2018-10-11T04:53:26.798Z,102238.91
2018-10-11T04:55:56.180Z,102242.39
2018-10-11T04:58:25.481Z,102241.55
2018-10-11T05:00:54.967Z,102231.85
2018-10-11T05:03:24.855Z,102229.22
2018-10-11T05:05:54.218Z,102237.13
2018-10-11T05:08:24.274Z,102230.06
2018-10-11T05:10:54.293Z,102225.15
2018-10-11T05:13:51.421Z,102243.11
2018-10-11T05:16:21.661Z,102232.56
2018-10-11T05:18:54.274Z,102228.96
2018-10-11T05:21:23.589Z,102237.28
2018-10-11T05:23:53.287Z,102231.53
2018-10-11T05:26:23.116Z,102230.58
2018-10-11T05:28:52.346Z,102240.11
2018-10-11T05:31:21.765Z,102233.00
2018-10-11T05:33:52.340Z,102075.20
2018-10-11T05:36:22.591Z,102223.34
2018-10-11T05:38:52.303Z,102215.47
2018-10-11T05:41:22.185Z,102215.70
2018-10-11T05:43:51.532Z,102212.33
2018-10-11T05:46:25.261Z,102211.07
2018-10-11T05:48:55.063Z,102212.02
2018-10-11T05:51:24.529Z,102210.88
2018-10-11T05:53:54.682Z,102203.16
2018-10-11T05:56:25.508Z,102202.41
2018-10-11T05:58:55.026Z,102200.73
2018-10-11T06:01:25.756Z,102206.06
2018-10-11T06:03:55.800Z,102207.06
2018-10-11T06:06:25.462Z,102203.58
2018-10-11T06:08:55.491Z,102205.38
2018-10-11T06:11:25.820Z,102204.06
2018-10-11T06:13:55.619Z,102195.73
2018-10-11T06:16:25.395Z,102188.34
2018-10-11T06:18:55.044Z,102184.01
2018-10-11T06:21:25.142Z,102189.70
2018-10-11T06:23:54.422Z,102183.16
2018-10-11T06:26:23.975Z,102183.17
2018-10-11T06:28:53.382Z,102174.88
2018-10-11T06:31:23.768Z,102173.17
2018-10-11T06:33:54.385Z,102174.55
2018-10-11T06:36:24.773Z,102167.57
2018-10-11T06:38:54.676Z,102167.19
2018-10-11T06:41:29.396Z,102170.77
2018-10-11T06:43:59.354Z,102162.00
2018-10-11T06:46:29.099Z,102165.58
2018-10-11T06:48:59.074Z,102155.10
2018-10-11T06:51:28.437Z,102164.81
2018-10-11T06:53:58.840Z,102160.47
2018-10-11T06:56:28.624Z,102166.67
2018-10-11T06:58:58.047Z,102162.76
2018-10-11T07:01:28.033Z,102171.18
2018-10-11T07:03:57.498Z,102169.44
2018-10-11T07:06:27.075Z,102167.72
2018-10-11T07:08:56.506Z,102166.86
2018-10-11T07:11:26.526Z,102166.02
2018-10-11T07:13:56.288Z,102166.55
2018-10-11T07:16:26.926Z,102165.26
2018-10-11T07:18:56.155Z,102167.93
2018-10-11T07:21:25.747Z,102168.42
2018-10-11T07:23:55.559Z,102168.00
2018-10-11T07:26:25.185Z,102167.56
2018-10-11T07:28:54.372Z,102170.67
2018-10-11T07:31:24.459Z,102161.91
2018-10-11T07:33:53.691Z,102160.16
2018-10-11T07:36:23.998Z,102154.94
2018-10-11T07:38:53.422Z,102154.08
2018-10-11T07:41:23.377Z,102151.88
2018-10-11T07:43:52.804Z,102149.73
2018-10-11T07:46:22.631Z,102151.53
2018-10-11T07:48:51.822Z,102151.55
2018-10-11T07:51:21.375Z,102159.52
2018-10-11T07:53:50.963Z,102148.95
2018-10-11T07:56:20.275Z,102143.72
2018-10-11T07:58:52.387Z,102142.03
2018-10-11T08:01:21.669Z,102141.16
2018-10-11T08:03:51.323Z,102142.49
2018-10-11T08:06:20.890Z,102138.56
2018-10-11T08:08:50.278Z,102137.73
2018-10-11T08:11:19.766Z,102148.33
2018-10-11T08:13:49.399Z,102150.12
2018-10-11T08:16:19.835Z,102141.33
2018-10-11T08:18:49.562Z,102139.66
2018-10-11T08:21:19.109Z,102128.17
2018-10-11T08:23:48.715Z,102129.09
2018-10-11T08:26:18.647Z,102129.11
2018-10-11T08:28:47.858Z,102131.76
2018-10-11T08:31:17.438Z,102136.17
2018-10-11T08:33:46.797Z,102137.05
2018-10-11T08:36:16.513Z,102136.63
2018-10-11T08:38:45.856Z,102140.58
2018-10-11T08:41:15.560Z,102137.03
2018-10-11T08:43:45.484Z,102139.69
2018-10-11T08:46:15.779Z,102138.79
2018-10-11T08:48:45.965Z,102139.72
2018-10-11T08:51:15.816Z,102126.41
2018-10-11T08:53:45.479Z,102137.00
2018-10-11T08:56:15.179Z,102124.63
2018-10-11T08:58:44.709Z,102121.02
2018-10-11T09:01:14.114Z,102120.14
2018-10-11T09:03:43.787Z,102111.67
2018-10-11T09:06:13.066Z,102112.04
2018-10-11T09:08:42.780Z,102116.91
2018-10-11T09:11:12.514Z,102125.28
2018-10-11T09:13:42.631Z,102112.87
2018-10-11T09:16:12.114Z,102105.76
2018-10-11T09:18:41.537Z,101962.81
2018-10-11T09:21:11.188Z,102103.41
2018-10-11T09:23:40.365Z,102106.37
2018-10-11T09:26:09.889Z,102097.87
2018-10-11T09:28:39.402Z,102086.67
2018-10-11T09:31:08.986Z,102098.03
2018-10-11T09:33:39.166Z,102101.51
2018-10-11T09:36:08.603Z,102094.81
2018-10-11T09:38:38.870Z,102088.98
2018-10-11T09:41:09.257Z,102089.75
2018-10-11T09:43:39.019Z,102088.78
2018-10-11T09:46:09.566Z,102087.87
2018-10-11T09:48:39.073Z,102086.87
2018-10-11T09:51:09.347Z,102087.28
2018-10-11T09:53:38.575Z,102090.33
2018-10-11T09:56:08.106Z,102087.57
2018-10-11T09:58:39.668Z,102091.47
2018-10-11T10:01:15.343Z,102092.36
2018-10-11T10:03:45.322Z,102094.55
2018-10-11T10:06:14.884Z,102094.55
2018-10-11T10:08:44.897Z,102081.20
2018-10-11T10:11:14.558Z,102084.72
2018-10-11T10:13:43.845Z,102074.92
2018-10-11T10:16:13.768Z,102080.21
2018-10-11T10:18:43.120Z,102066.89
2018-10-11T10:21:12.764Z,102063.27
2018-10-11T10:23:42.167Z,102062.80
2018-10-11T10:26:11.668Z,102053.44
2018-10-11T10:28:44.954Z,102049.81
2018-10-11T10:31:14.594Z,102050.66
2018-10-11T10:33:44.268Z,102038.23
2018-10-11T10:36:13.705Z,102037.23
2018-10-11T10:38:44.203Z,102030.90
2018-10-11T10:41:13.624Z,102025.09
2018-10-11T10:43:43.851Z,102028.56
2018-10-11T10:46:17.966Z,102032.52
2018-10-11T10:48:47.666Z,102028.44
2018-10-11T10:51:16.860Z,102004.97
2018-10-11T10:53:46.452Z,102030.48
2018-10-11T10:56:15.835Z,102027.70
2018-10-11T10:58:45.108Z,102034.68
2018-10-11T11:01:14.808Z,102025.75
2018-10-11T11:03:44.447Z,102020.32
2018-10-11T11:06:14.741Z,102019.30
2018-10-11T11:08:44.538Z,101999.60
2018-10-11T11:11:13.925Z,102012.89
2018-10-11T11:13:43.231Z,102003.50
2018-10-11T11:16:13.049Z,102012.22
2018-10-11T11:18:42.324Z,102007.22
2018-10-11T11:21:11.885Z,102004.00
2018-10-11T11:23:41.646Z,102005.20
2018-10-11T11:26:12.113Z,102009.59
2018-10-11T11:28:41.567Z,102009.53
2018-10-11T11:31:11.693Z,102003.30
2018-10-11T11:33:41.712Z,101887.84
2018-10-11T11:36:10.709Z,101996.72
2018-10-11T11:38:40.052Z,101960.45
2018-10-11T11:41:09.537Z,101997.88
2018-10-11T11:43:38.848Z,101986.66
2018-10-11T11:46:08.937Z,101975.96
2018-10-11T11:48:39.023Z,101981.14
2018-10-11T11:51:09.004Z,101970.34
2018-10-11T11:53:39.088Z,101972.08
2018-10-11T11:56:08.581Z,101967.61
2018-10-11T11:58:38.406Z,101972.95
2018-10-11T12:01:08.151Z,101972.02
2018-10-11T12:03:38.049Z,101972.45
2018-10-11T12:06:07.468Z,101969.28
2018-10-11T12:08:37.370Z,101957.72
2018-10-11T12:11:06.832Z,101940.80
2018-10-11T12:13:36.144Z,101943.01
2018-10-11T12:16:06.281Z,101935.00
2018-10-11T12:18:35.938Z,101937.10
2018-10-11T12:21:05.779Z,101941.44
2018-10-11T12:23:35.427Z,101947.78
2018-10-11T12:26:05.073Z,101940.73
2018-10-11T12:28:34.756Z,101929.10
2018-10-11T12:31:04.713Z,101932.59
2018-10-11T12:33:34.195Z,101938.34
2018-10-11T12:36:03.940Z,101936.98
2018-10-11T12:38:33.704Z,101932.31
2018-10-11T12:41:03.654Z,101927.95
2018-10-11T12:43:33.535Z,101784.48
2018-10-11T12:46:03.144Z,101926.88
2018-10-11T12:48:32.501Z,101926.68
2018-10-11T12:51:02.020Z,101923.14
2018-10-11T12:53:31.508Z,101920.03
2018-10-11T12:56:00.932Z,101916.96
2018-10-11T12:58:30.461Z,101920.47
2018-10-11T13:01:00.267Z,101921.42
2018-10-11T13:03:29.617Z,101913.35
2018-10-11T13:05:58.922Z,101907.13
2018-10-11T13:08:28.809Z,101899.88
2018-10-11T13:10:58.575Z,101892.77
2018-10-11T13:13:28.450Z,101890.93
2018-10-11T13:16:00.494Z,101895.80
2018-10-11T13:18:28.873Z,101894.09
2018-10-11T13:20:58.592Z,101885.26
2018-10-11T13:23:28.664Z,101887.97
2018-10-11T13:25:58.178Z,101877.70
2018-10-11T13:28:27.632Z,101880.38
2018-10-11T13:30:57.342Z,101848.33
2018-10-11T13:33:26.552Z,101879.45
2018-10-11T13:35:55.821Z,101875.94
2018-10-11T13:38:25.931Z,101890.23
2018-10-11T13:40:57.868Z,101881.36
2018-10-11T13:43:24.855Z,101891.20
2018-10-11T13:45:56.975Z,101883.27
2018-10-11T13:48:24.038Z,101875.23
2018-10-11T13:50:53.479Z,101879.69
2018-10-11T13:53:24.739Z,101876.59
2018-10-11T13:55:57.683Z,101862.90
2018-10-11T13:58:23.520Z,101860.23
2018-10-11T14:00:53.102Z,101842.43
2018-10-11T14:03:22.185Z,101841.96
2018-10-11T14:05:51.459Z,101841.52
2018-10-11T14:08:21.031Z,101837.09
2018-10-11T14:10:50.683Z,101835.42
2018-10-11T14:13:20.780Z,101826.50
2018-10-11T14:15:52.066Z,101825.57
2018-10-11T14:18:21.547Z,101825.63
2018-10-11T14:20:51.057Z,101824.91
2018-10-11T14:23:21.525Z,101840.00
2018-10-11T14:25:52.103Z,101841.01
2018-10-11T14:28:21.904Z,101838.73
2018-10-11T14:30:52.427Z,101600.52
2018-10-11T14:33:24.674Z,101831.23
2018-10-11T14:35:54.725Z,101829.13
2018-10-11T14:38:24.191Z,101819.78
2018-10-11T14:40:54.369Z,101815.27
2018-10-11T14:43:24.747Z,101801.66
2018-10-11T14:45:54.305Z,101803.94
2018-10-11T14:48:24.336Z,101794.98
2018-10-11T14:50:54.008Z,101789.31
2018-10-11T14:53:23.327Z,101789.38
2018-10-11T14:55:52.891Z,101789.95
2018-10-11T14:58:23.234Z,101793.95
2018-10-11T15:00:52.332Z,101791.36
2018-10-11T15:03:23.214Z,101788.19
2018-10-11T15:05:52.663Z,101790.13
2018-10-11T15:08:22.256Z,101790.52
2018-10-11T15:10:51.775Z,101790.98
2018-10-11T15:13:20.914Z,101789.36
2018-10-11T15:15:50.098Z,101793.83
2018-10-11T15:18:19.952Z,101790.39
2018-10-11T15:20:49.230Z,101782.89
2018-10-11T15:23:18.982Z,101782.55
2018-10-11T15:25:48.590Z,101771.77
2018-10-11T15:28:17.973Z,101765.61
2018-10-11T15:30:47.422Z,101762.10
2018-10-11T15:33:18.613Z,101760.37
2018-10-11T15:35:48.091Z,101765.77
2018-10-11T15:38:17.907Z,101767.67
2018-10-11T15:40:48.147Z,101774.88
2018-10-11T15:43:18.418Z,101771.10
2018-10-11T15:45:48.017Z,101763.61
2018-10-11T15:48:17.560Z,101756.89
2018-10-11T15:50:46.897Z,101751.28
2018-10-11T15:53:16.340Z,101749.23
2018-10-11T15:55:45.981Z,101752.00
2018-10-11T15:58:15.581Z,101748.13
2018-10-11T16:00:45.158Z,101629.91
2018-10-11T16:03:17.490Z,101758.08
2018-10-11T16:05:47.089Z,101767.00
2018-10-11T16:08:16.644Z,101771.56
2018-10-11T16:10:46.410Z,101771.12
2018-10-11T16:13:16.322Z,101775.67
2018-10-11T16:15:45.743Z,101784.22
2018-10-11T16:18:15.371Z,101778.11
2018-10-11T16:20:45.685Z,101779.59
2018-10-11T16:23:15.882Z,101773.86
2018-10-11T16:25:47.898Z,101773.03
2018-10-11T16:28:19.060Z,101748.43
2018-10-11T16:30:48.832Z,101751.87
2018-10-11T16:33:18.874Z,101758.65
2018-10-11T16:35:48.394Z,101759.19
2018-10-11T16:38:17.817Z,101765.41
2018-10-11T16:40:47.366Z,101758.89
2018-10-11T16:43:16.971Z,101765.64
2018-10-11T16:45:46.581Z,101766.63
2018-10-11T16:48:16.339Z,101782.75
2018-10-11T16:50:46.095Z,101788.08
2018-10-11T16:53:15.820Z,101785.50
2018-10-11T16:55:46.338Z,101789.10
2018-10-11T16:58:15.953Z,101793.63
2018-10-11T17:00:45.941Z,101781.25
2018-10-11T17:03:15.364Z,101776.84
2018-10-11T17:05:45.173Z,101769.80
2018-10-11T17:08:15.068Z,101778.71
2018-10-11T17:10:44.499Z,101779.70
2018-10-11T17:13:15.235Z,101784.66
2018-10-11T17:15:45.514Z,101794.02
2018-10-11T17:18:14.508Z,101791.88
2018-10-11T17:20:43.591Z,101791.08
2018-10-11T17:23:13.029Z,101793.33
2018-10-11T17:25:42.130Z,101789.91
2018-10-11T17:28:11.824Z,101797.02
2018-10-11T17:30:41.088Z,101798.38
2018-10-11T17:33:10.475Z,101798.86
2018-10-11T17:35:42.259Z,101808.17
2018-10-11T17:38:11.895Z,101801.56
2018-10-11T17:40:42.115Z,101799.38
2018-10-11T17:43:11.502Z,101792.77
2018-10-11T17:45:42.149Z,101781.77
2018-10-11T17:48:12.185Z,101786.64
2018-10-11T17:50:41.763Z,101781.84
2018-10-11T17:53:11.494Z,101790.74
2018-10-11T17:55:41.027Z,101629.61
2018-10-11T17:58:12.046Z,101793.03
2018-10-11T18:00:41.319Z,101798.02
2018-10-11T18:03:14.381Z,101799.79
2018-10-11T18:05:44.052Z,101802.08
2018-10-11T18:08:13.196Z,101806.54
2018-10-11T18:10:43.855Z,101806.58
2018-10-11T18:13:12.953Z,101808.38
2018-10-11T18:15:42.389Z,101807.97
2018-10-11T18:18:12.473Z,101804.02
2018-10-11T18:20:42.069Z,101813.77
2018-10-11T18:23:11.471Z,101818.64
2018-10-11T18:25:41.062Z,101822.70
2018-10-11T18:28:10.605Z,101826.27
2018-10-11T18:30:40.539Z,101821.43
2018-10-11T18:33:14.756Z,101820.13
2018-10-11T18:35:46.717Z,101826.39
2018-10-11T18:38:16.497Z,101825.51
2018-10-11T18:40:46.133Z,101821.11
2018-10-11T18:43:17.346Z,101814.05
2018-10-11T18:45:47.716Z,101808.33
2018-10-11T18:48:17.828Z,101805.29
2018-10-11T18:50:48.072Z,101791.12
2018-10-11T18:53:17.607Z,101794.66
2018-10-11T18:55:47.460Z,101795.11
2018-10-11T18:58:16.900Z,101799.09
2018-10-11T19:00:46.429Z,101800.00
2018-10-11T19:03:21.488Z,101801.81
2018-10-11T19:05:51.166Z,101804.02
2018-10-11T19:08:21.588Z,101800.95
2018-10-11T19:10:51.123Z,101797.88
2018-10-11T19:13:20.945Z,101803.16
2018-10-11T19:15:50.318Z,101805.41
2018-10-11T19:18:19.894Z,101807.66
2018-10-11T19:20:49.576Z,101805.91
2018-10-11T19:23:19.181Z,101805.91
2018-10-11T19:25:49.579Z,101804.61
2018-10-11T19:28:19.311Z,101811.30
2018-10-11T19:30:48.650Z,101818.77
2018-10-11T19:33:18.746Z,101823.64
2018-10-11T19:35:48.420Z,101815.73
2018-10-11T19:38:18.109Z,101813.55
2018-10-11T19:40:47.488Z,101814.42
2018-10-11T19:43:17.186Z,101804.75
2018-10-11T19:45:47.078Z,101808.26
2018-10-11T19:48:16.434Z,101808.28
2018-10-11T19:50:46.134Z,101814.92
2018-10-11T19:53:15.698Z,101810.94
2018-10-11T19:55:45.354Z,101810.06
2018-10-11T19:58:14.522Z,101803.45
2018-10-11T20:00:44.294Z,101807.42
2018-10-11T20:03:13.743Z,101807.45
2018-10-11T20:05:43.240Z,101806.56
2018-10-11T20:08:13.145Z,101811.93
2018-10-11T20:10:42.429Z,101814.62
2018-10-11T20:13:12.256Z,101813.73
2018-10-11T20:15:41.724Z,101820.78
2018-10-11T20:18:11.214Z,101830.13
2018-10-11T20:20:40.641Z,101820.86
2018-10-11T20:23:10.372Z,101817.34
2018-10-11T20:25:39.884Z,101819.55
2018-10-11T20:28:10.032Z,101817.34
2018-10-11T20:30:39.608Z,101813.80
2018-10-11T20:33:09.090Z,101823.56
2018-10-11T20:35:39.458Z,101822.70
2018-10-11T20:38:08.958Z,101822.72
2018-10-11T20:40:38.217Z,101822.34
2018-10-11T20:43:07.899Z,101826.31
2018-10-11T20:45:37.361Z,101823.66
2018-10-11T20:48:06.636Z,101821.94
2018-10-11T20:50:36.446Z,101811.34
2018-10-11T20:53:05.765Z,101804.26
2018-10-11T20:55:35.450Z,101801.60
2018-10-11T20:58:05.303Z,101803.39
2018-10-11T21:00:34.717Z,101808.73
2018-10-11T21:03:04.111Z,101815.84
2018-10-11T21:05:33.707Z,101807.88
2018-10-11T21:08:03.066Z,101804.38
2018-10-11T21:10:32.490Z,101814.09
2018-10-11T21:13:02.286Z,101809.70
2018-10-11T21:15:31.668Z,101809.75
2018-10-11T21:18:01.137Z,101809.77
2018-10-11T21:20:30.983Z,101815.95
2018-10-11T21:23:00.516Z,101818.60
2018-10-11T21:25:30.008Z,101815.09
2018-10-11T21:27:59.665Z,101817.74
2018-10-11T21:30:29.003Z,101817.77
2018-10-11T21:32:58.284Z,101813.80
2018-10-11T21:35:28.003Z,101815.13
2018-10-11T21:37:57.336Z,101809.87
2018-10-11T21:40:26.736Z,101815.19
2018-10-11T21:42:56.356Z,101815.60
2018-10-11T21:45:25.604Z,101813.40
2018-10-11T21:47:54.944Z,101814.33
2018-10-11T21:50:24.686Z,101817.86
2018-10-11T21:52:54.426Z,101820.06
2018-10-11T21:55:24.415Z,101826.69
2018-10-11T21:57:54.150Z,101828.48
2018-10-11T22:00:28.622Z,101822.33
2018-10-11T22:02:58.180Z,101832.94
2018-10-11T22:05:27.469Z,101827.63
2018-10-11T22:07:56.849Z,101703.93
2018-10-11T22:10:26.668Z,101824.09
2018-10-11T22:12:56.002Z,101825.87
2018-10-11T22:15:25.766Z,101819.69
2018-10-11T22:17:55.366Z,101824.15
2018-10-11T22:20:24.741Z,101826.83
2018-10-11T22:22:54.116Z,101811.84
2018-10-11T22:25:23.630Z,101823.31
2018-10-11T22:27:52.979Z,101821.11
2018-10-11T22:30:22.293Z,101809.64
2018-10-11T22:32:51.680Z,101814.94
2018-10-11T22:35:21.108Z,101810.98
2018-10-11T22:37:55.590Z,101807.02
2018-10-11T22:40:25.069Z,101799.52
2018-10-11T22:42:54.919Z,101807.46
2018-10-11T22:45:24.567Z,101802.19
2018-10-11T22:47:54.493Z,101803.50
2018-10-11T22:50:24.581Z,101802.17
2018-10-11T22:52:54.144Z,101811.88
2018-10-11T22:55:23.759Z,101790.25
2018-10-11T22:57:53.273Z,101800.45
2018-10-11T23:00:23.218Z,101796.03
2018-10-11T23:02:52.879Z,101798.67
2018-10-11T23:05:22.596Z,101796.91
2018-10-11T23:07:52.148Z,101796.91
2018-10-11T23:10:21.675Z,101791.17
2018-10-11T23:12:50.944Z,101803.10
2018-10-11T23:15:20.886Z,101804.84
2018-10-11T23:17:50.239Z,101800.43
2018-10-11T23:20:19.591Z,101800.00
2018-10-11T23:22:49.309Z,101802.20
2018-10-11T23:25:18.940Z,101799.58
2018-10-11T23:27:48.637Z,101809.30
2018-10-11T23:30:18.463Z,101807.55
2018-10-11T23:32:48.228Z,101799.59
2018-10-11T23:35:17.508Z,101772.27
2018-10-11T23:37:47.185Z,101803.59
2018-10-11T23:40:16.452Z,101805.78
2018-10-11T23:42:46.006Z,101801.39
2018-10-11T23:45:15.654Z,101807.56
2018-10-11T23:47:45.199Z,101796.09
2018-10-11T23:50:14.561Z,101781.94
2018-10-11T23:52:44.007Z,101792.56
2018-10-11T23:55:13.726Z,101788.15
2018-10-11T23:57:43.084Z,101793.45
